Briercrest, Canada
Current Conditions -  °F | °C
As of 9:00 PM on Monday 22 Dec 2014 (Local Time) from CYQR Reporting Station
Overcast Overcast  
Wind Chill: -13°   Ceiling: 300
Heat Index: -6°   Visibility: 12mi
Dew Point: -6°   Wind: 12mph
Humidity: 100%   Direction: 330°NNW
Pressure: 29.95"   Gusts: NA
Location:  50.17°N, 105.27°W
Report Text: CYQR 230300Z 33010KT 12SM OVC003 M06/M06 A2995 RMK ST8 SLP179
Loading
Personal Weather Stations






























Interactive Weather Map New forecast layout! Learn more

10-Day Weather Forecast

Advertisements
Track Severe Weather on mobile